Terminal Aerodrome Forecast
Issued by NWS

Home | Current Version | Previous Version | Text Only | Print | Product List | Glossary On
Versions: 1 2 3 4 5 6 7 8 9 10 11 12 13 14 15 16 17 18
888
FTUS45 KVEF 220520
TAFHND
TAF
KHND 220520Z 2206/2306 20015G25KT P6SM FEW100 BKN200
     FM222100 24018G26KT P6SM SCT200
     FM230300 34013G23KT P6SM BKN090=

USA.gov is the U.S. government's official web portal to all federal, state and local government web resources and services.